sensor_id;sensor_type;location;lat;lon;timestamp;temperature;humidity
43884;DHT22;29544;52.018;5.810;2023-06-10T00:00:53;24.40;55.60
43884;DHT22;29544;52.018;5.810;2023-06-10T00:03:19;24.50;55.70
43884;DHT22;29544;52.018;5.810;2023-06-10T00:05:44;24.50;55.70
43884;DHT22;29544;52.018;5.810;2023-06-10T00:08:10;24.50;55.70
43884;DHT22;29544;52.018;5.810;2023-06-10T00:10:36;24.40;55.70
43884;DHT22;29544;52.018;5.810;2023-06-10T00:13:06;24.40;55.70
43884;DHT22;29544;52.018;5.810;2023-06-10T00:15:35;24.40;55.70
43884;DHT22;29544;52.018;5.810;2023-06-10T00:18:01;24.40;55.70
43884;DHT22;29544;52.018;5.810;2023-06-10T00:20:27;24.40;55.90
43884;DHT22;29544;52.018;5.810;2023-06-10T00:22:53;24.40;55.80
43884;DHT22;29544;52.018;5.810;2023-06-10T00:25:19;24.40;55.80
43884;DHT22;29544;52.018;5.810;2023-06-10T00:27:44;24.40;55.80
43884;DHT22;29544;52.018;5.810;2023-06-10T00:30:10;24.40;55.80
43884;DHT22;29544;52.018;5.810;2023-06-10T00:32:37;24.40;55.80
43884;DHT22;29544;52.018;5.810;2023-06-10T00:35:03;24.40;55.80
43884;DHT22;29544;52.018;5.810;2023-06-10T00:37:28;24.40;55.80
43884;DHT22;29544;52.018;5.810;2023-06-10T00:39:55;24.30;55.70
43884;DHT22;29544;52.018;5.810;2023-06-10T00:42:20;24.40;55.80
43884;DHT22;29544;52.018;5.810;2023-06-10T00:44:47;24.30;55.70
43884;DHT22;29544;52.018;5.810;2023-06-10T00:47:13;24.30;55.80
43884;DHT22;29544;52.018;5.810;2023-06-10T00:49:39;24.30;55.70
43884;DHT22;29544;52.018;5.810;2023-06-10T00:52:07;24.30;55.80
43884;DHT22;29544;52.018;5.810;2023-06-10T00:54:33;24.30;55.80
43884;DHT22;29544;52.018;5.810;2023-06-10T00:57:01;24.30;55.80
43884;DHT22;29544;52.018;5.810;2023-06-10T00:59:28;24.30;55.80
43884;DHT22;29544;52.018;5.810;2023-06-10T01:01:54;24.30;55.80
43884;DHT22;29544;52.018;5.810;2023-06-10T01:04:20;24.30;55.80
43884;DHT22;29544;52.018;5.810;2023-06-10T01:06:50;24.30;55.80
43884;DHT22;29544;52.018;5.810;2023-06-10T01:12:02;24.30;55.80
43884;DHT22;29544;52.018;5.810;2023-06-10T01:14:33;24.30;55.90
43884;DHT22;29544;52.018;5.810;2023-06-10T01:16:59;24.30;55.80
43884;DHT22;29544;52.018;5.810;2023-06-10T01:19:25;24.30;55.80
43884;DHT22;29544;52.018;5.810;2023-06-10T01:21:51;24.30;55.70
43884;DHT22;29544;52.018;5.810;2023-06-10T01:24:17;24.30;55.80
43884;DHT22;29544;52.018;5.810;2023-06-10T01:26:43;24.20;55.70
43884;DHT22;29544;52.018;5.810;2023-06-10T01:29:16;24.20;55.70
43884;DHT22;29544;52.018;5.810;2023-06-10T01:32:06;24.20;55.70
43884;DHT22;29544;52.018;5.810;2023-06-10T01:34:31;24.20;55.70
43884;DHT22;29544;52.018;5.810;2023-06-10T01:36:58;24.20;55.70
43884;DHT22;29544;52.018;5.810;2023-06-10T01:39:24;24.20;55.70
43884;DHT22;29544;52.018;5.810;2023-06-10T01:41:51;24.20;55.70
43884;DHT22;29544;52.018;5.810;2023-06-10T01:44:19;24.20;55.70
43884;DHT22;29544;52.018;5.810;2023-06-10T01:46:45;24.20;55.80
43884;DHT22;29544;52.018;5.810;2023-06-10T01:49:10;24.20;55.70
43884;DHT22;29544;52.018;5.810;2023-06-10T01:51:36;24.20;55.70
43884;DHT22;29544;52.018;5.810;2023-06-10T01:54:01;24.20;55.70
43884;DHT22;29544;52.018;5.810;2023-06-10T01:56:27;24.10;55.70
43884;DHT22;29544;52.018;5.810;2023-06-10T01:58:52;24.10;55.70
43884;DHT22;29544;52.018;5.810;2023-06-10T02:01:20;24.10;55.70
43884;DHT22;29544;52.018;5.810;2023-06-10T02:03:46;24.10;55.70
43884;DHT22;29544;52.018;5.810;2023-06-10T02:06:11;24.10;55.70
43884;DHT22;29544;52.018;5.810;2023-06-10T02:08:37;24.10;55.70
43884;DHT22;29544;52.018;5.810;2023-06-10T02:11:02;24.10;55.70
43884;DHT22;29544;52.018;5.810;2023-06-10T02:13:28;24.10;55.70
43884;DHT22;29544;52.018;5.810;2023-06-10T02:15:53;24.10;55.70
43884;DHT22;29544;52.018;5.810;2023-06-10T02:18:20;24.10;55.70
43884;DHT22;29544;52.018;5.810;2023-06-10T02:20:46;24.10;55.70
43884;DHT22;29544;52.018;5.810;2023-06-10T02:23:11;24.10;55.70
43884;DHT22;29544;52.018;5.810;2023-06-10T02:25:37;24.00;55.70
43884;DHT22;29544;52.018;5.810;2023-06-10T02:28:03;24.00;55.70
43884;DHT22;29544;52.018;5.810;2023-06-10T02:30:28;24.10;55.70
43884;DHT22;29544;52.018;5.810;2023-06-10T02:32:54;24.00;55.70
43884;DHT22;29544;52.018;5.810;2023-06-10T02:35:21;24.00;55.70
43884;DHT22;29544;52.018;5.810;2023-06-10T02:37:49;24.00;55.60
43884;DHT22;29544;52.018;5.810;2023-06-10T02:40:15;24.00;55.60
43884;DHT22;29544;52.018;5.810;2023-06-10T02:42:40;24.00;55.70
43884;DHT22;29544;52.018;5.810;2023-06-10T02:45:07;24.00;55.70
43884;DHT22;29544;52.018;5.810;2023-06-10T02:47:32;24.00;55.70
43884;DHT22;29544;52.018;5.810;2023-06-10T02:49:58;24.00;55.70
43884;DHT22;29544;52.018;5.810;2023-06-10T02:52:23;24.00;55.70
43884;DHT22;29544;52.018;5.810;2023-06-10T02:54:49;24.00;55.70
43884;DHT22;29544;52.018;5.810;2023-06-10T02:57:14;24.00;55.70
43884;DHT22;29544;52.018;5.810;2023-06-10T02:59:40;24.00;55.70
43884;DHT22;29544;52.018;5.810;2023-06-10T03:02:06;24.00;55.70
43884;DHT22;29544;52.018;5.810;2023-06-10T03:04:32;23.90;55.60
43884;DHT22;29544;52.018;5.810;2023-06-10T03:06:58;23.90;55.70
43884;DHT22;29544;52.018;5.810;2023-06-10T03:09:23;23.90;55.70
43884;DHT22;29544;52.018;5.810;2023-06-10T03:11:49;23.90;55.70
43884;DHT22;29544;52.018;5.810;2023-06-10T03:14:14;23.90;55.70
43884;DHT22;29544;52.018;5.810;2023-06-10T03:16:39;23.90;55.60
43884;DHT22;29544;52.018;5.810;2023-06-10T03:19:06;23.90;55.70
43884;DHT22;29544;52.018;5.810;2023-06-10T03:21:33;23.90;55.70
43884;DHT22;29544;52.018;5.810;2023-06-10T03:23:58;23.90;55.70
43884;DHT22;29544;52.018;5.810;2023-06-10T03:26:25;23.90;55.70
43884;DHT22;29544;52.018;5.810;2023-06-10T03:28:51;23.90;55.70
43884;DHT22;29544;52.018;5.810;2023-06-10T03:31:16;23.90;55.70
43884;DHT22;29544;52.018;5.810;2023-06-10T03:33:42;23.90;55.70
43884;DHT22;29544;52.018;5.810;2023-06-10T03:36:08;23.90;55.70
43884;DHT22;29544;52.018;5.810;2023-06-10T03:38:33;23.90;55.70
43884;DHT22;29544;52.018;5.810;2023-06-10T03:40:59;23.90;56.30
43884;DHT22;29544;52.018;5.810;2023-06-10T03:43:24;23.80;55.60
43884;DHT22;29544;52.018;5.810;2023-06-10T03:45:50;23.80;55.60
43884;DHT22;29544;52.018;5.810;2023-06-10T03:48:16;23.80;55.60
43884;DHT22;29544;52.018;5.810;2023-06-10T03:50:42;23.80;55.60
43884;DHT22;29544;52.018;5.810;2023-06-10T03:53:07;23.80;55.70
43884;DHT22;29544;52.018;5.810;2023-06-10T03:55:33;23.80;55.60
43884;DHT22;29544;52.018;5.810;2023-06-10T03:57:58;23.80;55.60
43884;DHT22;29544;52.018;5.810;2023-06-10T04:00:24;23.80;55.60
43884;DHT22;29544;52.018;5.810;2023-06-10T04:02:49;23.80;55.60
43884;DHT22;29544;52.018;5.810;2023-06-10T04:05:16;23.80;55.60
43884;DHT22;29544;52.018;5.810;2023-06-10T04:07:43;23.80;55.70
43884;DHT22;29544;52.018;5.810;2023-06-10T04:10:10;23.70;55.60
43884;DHT22;29544;52.018;5.810;2023-06-10T04:12:36;23.80;55.70
43884;DHT22;29544;52.018;5.810;2023-06-10T04:15:03;23.70;55.60
43884;DHT22;29544;52.018;5.810;2023-06-10T04:17:28;23.70;55.60
43884;DHT22;29544;52.018;5.810;2023-06-10T04:19:54;23.70;55.60
43884;DHT22;29544;52.018;5.810;2023-06-10T04:22:20;23.70;55.60
43884;DHT22;29544;52.018;5.810;2023-06-10T04:24:45;23.70;55.60
43884;DHT22;29544;52.018;5.810;2023-06-10T04:27:11;23.70;56.30
43884;DHT22;29544;52.018;5.810;2023-06-10T04:29:37;23.70;55.70
43884;DHT22;29544;52.018;5.810;2023-06-10T04:32:02;23.70;55.70
43884;DHT22;29544;52.018;5.810;2023-06-10T04:34:28;23.70;55.70
43884;DHT22;29544;52.018;5.810;2023-06-10T04:36:54;23.70;55.70
43884;DHT22;29544;52.018;5.810;2023-06-10T04:39:19;23.70;55.70
43884;DHT22;29544;52.018;5.810;2023-06-10T04:41:45;23.70;55.70
43884;DHT22;29544;52.018;5.810;2023-06-10T04:44:11;23.70;55.70
43884;DHT22;29544;52.018;5.810;2023-06-10T04:46:37;23.70;55.60
43884;DHT22;29544;52.018;5.810;2023-06-10T04:49:03;23.70;55.60
43884;DHT22;29544;52.018;5.810;2023-06-10T04:51:30;23.70;55.60
43884;DHT22;29544;52.018;5.810;2023-06-10T04:53:55;23.70;55.60
43884;DHT22;29544;52.018;5.810;2023-06-10T04:56:21;23.70;55.60
43884;DHT22;29544;52.018;5.810;2023-06-10T04:58:47;23.70;55.60
43884;DHT22;29544;52.018;5.810;2023-06-10T05:01:12;23.60;55.50
43884;DHT22;29544;52.018;5.810;2023-06-10T05:03:38;23.70;55.60
43884;DHT22;29544;52.018;5.810;2023-06-10T05:06:03;23.70;55.50
43884;DHT22;29544;52.018;5.810;2023-06-10T05:08:29;23.70;55.60
43884;DHT22;29544;52.018;5.810;2023-06-10T05:10:54;23.70;55.60
43884;DHT22;29544;52.018;5.810;2023-06-10T05:13:20;23.60;55.50
43884;DHT22;29544;52.018;5.810;2023-06-10T05:15:46;23.70;55.50
43884;DHT22;29544;52.018;5.810;2023-06-10T05:18:12;23.70;55.60
43884;DHT22;29544;52.018;5.810;2023-06-10T05:20:38;23.70;55.60
43884;DHT22;29544;52.018;5.810;2023-06-10T05:23:03;23.70;55.50
43884;DHT22;29544;52.018;5.810;2023-06-10T05:25:32;23.70;55.50
43884;DHT22;29544;52.018;5.810;2023-06-10T05:27:58;23.70;55.50
43884;DHT22;29544;52.018;5.810;2023-06-10T05:30:24;23.70;55.50
43884;DHT22;29544;52.018;5.810;2023-06-10T05:32:50;23.70;55.50
43884;DHT22;29544;52.018;5.810;2023-06-10T05:35:16;23.70;55.50
43884;DHT22;29544;52.018;5.810;2023-06-10T05:37:42;23.70;55.40
43884;DHT22;29544;52.018;5.810;2023-06-10T05:40:08;23.70;55.40
43884;DHT22;29544;52.018;5.810;2023-06-10T05:42:34;23.70;55.40
43884;DHT22;29544;52.018;5.810;2023-06-10T05:45:00;23.70;55.40
43884;DHT22;29544;52.018;5.810;2023-06-10T05:47:25;23.70;55.40
43884;DHT22;29544;52.018;5.810;2023-06-10T05:49:51;23.70;55.40
43884;DHT22;29544;52.018;5.810;2023-06-10T05:52:17;23.70;55.40
43884;DHT22;29544;52.018;5.810;2023-06-10T05:54:43;23.70;55.40
43884;DHT22;29544;52.018;5.810;2023-06-10T05:57:09;23.70;55.40
43884;DHT22;29544;52.018;5.810;2023-06-10T05:59:35;23.70;55.40
43884;DHT22;29544;52.018;5.810;2023-06-10T06:02:01;23.70;55.50
43884;DHT22;29544;52.018;5.810;2023-06-10T06:04:26;23.70;55.40
43884;DHT22;29544;52.018;5.810;2023-06-10T06:06:52;23.70;55.40
43884;DHT22;29544;52.018;5.810;2023-06-10T06:09:17;23.70;55.40
43884;DHT22;29544;52.018;5.810;2023-06-10T06:11:43;23.70;55.40
43884;DHT22;29544;52.018;5.810;2023-06-10T06:14:08;23.70;55.40
43884;DHT22;29544;52.018;5.810;2023-06-10T06:16:34;23.60;55.30
43884;DHT22;29544;52.018;5.810;2023-06-10T06:18:59;23.70;55.40
43884;DHT22;29544;52.018;5.810;2023-06-10T06:21:25;23.70;55.40
43884;DHT22;29544;52.018;5.810;2023-06-10T06:23:50;23.60;55.30
43884;DHT22;29544;52.018;5.810;2023-06-10T06:26:16;23.70;55.40
43884;DHT22;29544;52.018;5.810;2023-06-10T06:28:42;23.60;55.30
43884;DHT22;29544;52.018;5.810;2023-06-10T06:31:07;23.70;55.30
43884;DHT22;29544;52.018;5.810;2023-06-10T06:33:33;23.60;55.30
43884;DHT22;29544;52.018;5.810;2023-06-10T06:35:58;23.60;55.30
43884;DHT22;29544;52.018;5.810;2023-06-10T06:38:26;23.60;55.30
43884;DHT22;29544;52.018;5.810;2023-06-10T06:40:52;23.60;55.20
43884;DHT22;29544;52.018;5.810;2023-06-10T06:43:17;23.60;55.20
43884;DHT22;29544;52.018;5.810;2023-06-10T06:45:44;23.60;55.20
43884;DHT22;29544;52.018;5.810;2023-06-10T06:48:10;23.70;55.90
43884;DHT22;29544;52.018;5.810;2023-06-10T06:50:36;23.60;55.20
43884;DHT22;29544;52.018;5.810;2023-06-10T06:53:02;23.60;55.20
43884;DHT22;29544;52.018;5.810;2023-06-10T06:55:27;23.60;55.30
43884;DHT22;29544;52.018;5.810;2023-06-10T06:57:53;23.60;55.20
43884;DHT22;29544;52.018;5.810;2023-06-10T07:00:19;23.60;55.20
43884;DHT22;29544;52.018;5.810;2023-06-10T07:02:44;23.60;55.20
43884;DHT22;29544;52.018;5.810;2023-06-10T07:05:10;23.60;55.20
43884;DHT22;29544;52.018;5.810;2023-06-10T07:07:35;23.60;55.20
43884;DHT22;29544;52.018;5.810;2023-06-10T07:10:01;23.60;55.30
43884;DHT22;29544;52.018;5.810;2023-06-10T07:12:27;23.60;55.20
43884;DHT22;29544;52.018;5.810;2023-06-10T07:14:52;23.60;55.30
43884;DHT22;29544;52.018;5.810;2023-06-10T07:17:17;23.60;55.30
43884;DHT22;29544;52.018;5.810;2023-06-10T07:19:44;23.60;55.30
43884;DHT22;29544;52.018;5.810;2023-06-10T07:22:09;23.60;55.30
43884;DHT22;29544;52.018;5.810;2023-06-10T07:24:35;23.60;55.30
43884;DHT22;29544;52.018;5.810;2023-06-10T07:27:01;23.60;55.30
43884;DHT22;29544;52.018;5.810;2023-06-10T07:29:26;23.70;55.40
43884;DHT22;29544;52.018;5.810;2023-06-10T07:31:52;23.60;55.30
43884;DHT22;29544;52.018;5.810;2023-06-10T07:34:18;23.70;55.30
43884;DHT22;29544;52.018;5.810;2023-06-10T07:36:44;23.70;55.30
43884;DHT22;29544;52.018;5.810;2023-06-10T07:39:10;23.70;55.40
43884;DHT22;29544;52.018;5.810;2023-06-10T07:41:35;23.70;55.40
43884;DHT22;29544;52.018;5.810;2023-06-10T07:44:01;23.70;55.40
43884;DHT22;29544;52.018;5.810;2023-06-10T07:46:27;23.70;55.40
43884;DHT22;29544;52.018;5.810;2023-06-10T07:48:54;23.70;56.00
43884;DHT22;29544;52.018;5.810;2023-06-10T07:51:21;23.70;55.50
43884;DHT22;29544;52.018;5.810;2023-06-10T07:53:47;23.70;55.50
43884;DHT22;29544;52.018;5.810;2023-06-10T07:56:12;23.70;55.60
43884;DHT22;29544;52.018;5.810;2023-06-10T07:58:38;23.70;55.50
43884;DHT22;29544;52.018;5.810;2023-06-10T08:01:03;23.70;55.60
43884;DHT22;29544;52.018;5.810;2023-06-10T08:03:29;23.70;55.60
43884;DHT22;29544;52.018;5.810;2023-06-10T08:05:55;23.70;55.60
43884;DHT22;29544;52.018;5.810;2023-06-10T08:08:20;23.70;55.50
43884;DHT22;29544;52.018;5.810;2023-06-10T08:10:46;23.70;55.50
43884;DHT22;29544;52.018;5.810;2023-06-10T08:13:11;23.70;55.50
43884;DHT22;29544;52.018;5.810;2023-06-10T08:15:37;23.80;55.50
43884;DHT22;29544;52.018;5.810;2023-06-10T08:18:03;23.80;55.50
43884;DHT22;29544;52.018;5.810;2023-06-10T08:20:28;23.80;55.50
43884;DHT22;29544;52.018;5.810;2023-06-10T08:22:54;23.80;55.50
43884;DHT22;29544;52.018;5.810;2023-06-10T08:25:20;23.80;55.50
43884;DHT22;29544;52.018;5.810;2023-06-10T08:27:47;23.80;55.50
43884;DHT22;29544;52.018;5.810;2023-06-10T08:30:13;23.80;55.50
43884;DHT22;29544;52.018;5.810;2023-06-10T08:32:39;23.80;55.60
43884;DHT22;29544;52.018;5.810;2023-06-10T08:35:04;23.80;55.50
43884;DHT22;29544;52.018;5.810;2023-06-10T08:37:30;23.80;55.50
43884;DHT22;29544;52.018;5.810;2023-06-10T08:39:56;23.90;55.60
43884;DHT22;29544;52.018;5.810;2023-06-10T08:42:26;23.90;55.60
43884;DHT22;29544;52.018;5.810;2023-06-10T08:44:54;23.80;55.50
43884;DHT22;29544;52.018;5.810;2023-06-10T08:47:23;23.90;55.60
43884;DHT22;29544;52.018;5.810;2023-06-10T08:49:48;23.90;55.60
43884;DHT22;29544;52.018;5.810;2023-06-10T08:52:18;23.90;55.60
43884;DHT22;29544;52.018;5.810;2023-06-10T08:55:03;23.80;55.50
43884;DHT22;29544;52.018;5.810;2023-06-10T08:57:29;23.90;55.60
43884;DHT22;29544;52.018;5.810;2023-06-10T08:59:56;23.90;55.60
43884;DHT22;29544;52.018;5.810;2023-06-10T09:02:22;23.90;55.60
43884;DHT22;29544;52.018;5.810;2023-06-10T09:04:49;23.90;55.50
43884;DHT22;29544;52.018;5.810;2023-06-10T09:07:18;23.90;55.50
43884;DHT22;29544;52.018;5.810;2023-06-10T09:09:44;23.90;55.50
43884;DHT22;29544;52.018;5.810;2023-06-10T09:12:11;23.90;55.60
43884;DHT22;29544;52.018;5.810;2023-06-10T09:14:37;23.90;55.50
43884;DHT22;29544;52.018;5.810;2023-06-10T09:17:06;23.90;55.50
43884;DHT22;29544;52.018;5.810;2023-06-10T09:19:31;23.90;55.50
43884;DHT22;29544;52.018;5.810;2023-06-10T09:21:58;24.00;55.60
43884;DHT22;29544;52.018;5.810;2023-06-10T09:24:24;24.00;55.50
43884;DHT22;29544;52.018;5.810;2023-06-10T09:26:50;24.00;55.60
43884;DHT22;29544;52.018;5.810;2023-06-10T09:29:16;24.00;55.60
43884;DHT22;29544;52.018;5.810;2023-06-10T09:31:43;24.00;55.60
43884;DHT22;29544;52.018;5.810;2023-06-10T09:34:11;24.00;55.50
43884;DHT22;29544;52.018;5.810;2023-06-10T09:36:38;24.00;55.50
43884;DHT22;29544;52.018;5.810;2023-06-10T09:39:04;24.00;55.50
43884;DHT22;29544;52.018;5.810;2023-06-10T09:41:40;24.10;55.50
43884;DHT22;29544;52.018;5.810;2023-06-10T09:44:26;24.00;55.50
43884;DHT22;29544;52.018;5.810;2023-06-10T09:46:52;24.10;55.50
43884;DHT22;29544;52.018;5.810;2023-06-10T09:49:19;24.10;55.50
43884;DHT22;29544;52.018;5.810;2023-06-10T09:51:54;24.10;55.50
43884;DHT22;29544;52.018;5.810;2023-06-10T09:54:21;24.10;55.50
43884;DHT22;29544;52.018;5.810;2023-06-10T09:56:48;24.10;55.50
43884;DHT22;29544;52.018;5.810;2023-06-10T09:59:14;24.10;55.50
43884;DHT22;29544;52.018;5.810;2023-06-10T10:01:40;24.10;55.50
43884;DHT22;29544;52.018;5.810;2023-06-10T10:04:06;24.10;55.50
43884;DHT22;29544;52.018;5.810;2023-06-10T10:06:31;24.10;55.50
43884;DHT22;29544;52.018;5.810;2023-06-10T10:08:57;24.10;55.50
43884;DHT22;29544;52.018;5.810;2023-06-10T10:11:23;24.10;55.50
43884;DHT22;29544;52.018;5.810;2023-06-10T10:13:51;24.20;55.50
43884;DHT22;29544;52.018;5.810;2023-06-10T10:16:23;24.20;55.50
43884;DHT22;29544;52.018;5.810;2023-06-10T10:18:55;24.20;55.50
43884;DHT22;29544;52.018;5.810;2023-06-10T10:21:24;24.20;55.50
43884;DHT22;29544;52.018;5.810;2023-06-10T10:24:05;24.20;55.50
43884;DHT22;29544;52.018;5.810;2023-06-10T10:26:33;24.20;55.60
43884;DHT22;29544;52.018;5.810;2023-06-10T10:31:29;24.30;55.60
43884;DHT22;29544;52.018;5.810;2023-06-10T10:33:58;24.30;55.50
43884;DHT22;29544;52.018;5.810;2023-06-10T10:36:25;24.30;55.50
43884;DHT22;29544;52.018;5.810;2023-06-10T10:38:50;24.30;55.50
43884;DHT22;29544;52.018;5.810;2023-06-10T10:41:17;24.30;55.50
43884;DHT22;29544;52.018;5.810;2023-06-10T10:43:44;24.30;55.50
43884;DHT22;29544;52.018;5.810;2023-06-10T10:46:16;24.40;55.50
43884;DHT22;29544;52.018;5.810;2023-06-10T10:48:43;24.40;56.20
43884;DHT22;29544;52.018;5.810;2023-06-10T10:51:11;24.40;55.50
43884;DHT22;29544;52.018;5.810;2023-06-10T10:53:38;24.40;55.50
43884;DHT22;29544;52.018;5.810;2023-06-10T10:56:12;24.40;55.40
43884;DHT22;29544;52.018;5.810;2023-06-10T10:58:38;24.40;55.50
43884;DHT22;29544;52.018;5.810;2023-06-10T11:01:11;24.40;55.40
43884;DHT22;29544;52.018;5.810;2023-06-10T11:03:43;24.50;55.40
43884;DHT22;29544;52.018;5.810;2023-06-10T11:06:17;24.50;55.30
43884;DHT22;29544;52.018;5.810;2023-06-10T11:11:24;24.60;55.20
43884;DHT22;29544;52.018;5.810;2023-06-10T11:16:29;24.60;55.10
43884;DHT22;29544;52.018;5.810;2023-06-10T11:18:56;24.60;55.10
43884;DHT22;29544;52.018;5.810;2023-06-10T11:21:25;24.60;55.00
43884;DHT22;29544;52.018;5.810;2023-06-10T11:23:51;24.70;55.00
43884;DHT22;29544;52.018;5.810;2023-06-10T11:29:06;24.70;54.90
43884;DHT22;29544;52.018;5.810;2023-06-10T11:31:38;24.70;54.80
43884;DHT22;29544;52.018;5.810;2023-06-10T11:34:06;24.70;54.80
43884;DHT22;29544;52.018;5.810;2023-06-10T11:36:33;24.80;54.80
43884;DHT22;29544;52.018;5.810;2023-06-10T11:39:03;24.80;54.70
43884;DHT22;29544;52.018;5.810;2023-06-10T11:41:30;24.80;54.70
43884;DHT22;29544;52.018;5.810;2023-06-10T11:43:59;24.80;54.60
43884;DHT22;29544;52.018;5.810;2023-06-10T11:46:26;24.90;54.60
43884;DHT22;29544;52.018;5.810;2023-06-10T11:48:56;24.90;54.60
43884;DHT22;29544;52.018;5.810;2023-06-10T11:51:25;24.90;54.50
43884;DHT22;29544;52.018;5.810;2023-06-10T11:53:51;25.00;54.60
43884;DHT22;29544;52.018;5.810;2023-06-10T11:56:21;25.00;54.50
43884;DHT22;29544;52.018;5.810;2023-06-10T11:58:55;25.00;54.50
43884;DHT22;29544;52.018;5.810;2023-06-10T12:01:24;25.00;54.40
43884;DHT22;29544;52.018;5.810;2023-06-10T12:04:00;25.10;54.40
43884;DHT22;29544;52.018;5.810;2023-06-10T12:06:26;25.10;54.30
43884;DHT22;29544;52.018;5.810;2023-06-10T12:08:53;25.10;54.20
43884;DHT22;29544;52.018;5.810;2023-06-10T12:11:19;25.20;54.20
43884;DHT22;29544;52.018;5.810;2023-06-10T12:13:47;25.20;54.20
43884;DHT22;29544;52.018;5.810;2023-06-10T12:16:13;25.20;54.20
43884;DHT22;29544;52.018;5.810;2023-06-10T12:18:39;25.30;54.20
43884;DHT22;29544;52.018;5.810;2023-06-10T12:21:19;25.30;54.20
43884;DHT22;29544;52.018;5.810;2023-06-10T12:24:07;25.30;54.10
43884;DHT22;29544;52.018;5.810;2023-06-10T12:26:43;25.30;54.10
43884;DHT22;29544;52.018;5.810;2023-06-10T12:29:20;25.40;54.10
43884;DHT22;29544;52.018;5.810;2023-06-10T12:32:02;25.40;54.10
43884;DHT22;29544;52.018;5.810;2023-06-10T12:34:36;25.40;54.00
43884;DHT22;29544;52.018;5.810;2023-06-10T12:37:04;25.50;54.10
43884;DHT22;29544;52.018;5.810;2023-06-10T12:39:33;25.50;54.00
43884;DHT22;29544;52.018;5.810;2023-06-10T12:42:00;25.50;54.10
43884;DHT22;29544;52.018;5.810;2023-06-10T12:44:33;25.50;54.00
43884;DHT22;29544;52.018;5.810;2023-06-10T12:47:00;25.60;54.00
43884;DHT22;29544;52.018;5.810;2023-06-10T12:49:25;25.60;54.00
43884;DHT22;29544;52.018;5.810;2023-06-10T12:51:52;25.60;54.00
43884;DHT22;29544;52.018;5.810;2023-06-10T12:54:18;25.70;54.00
43884;DHT22;29544;52.018;5.810;2023-06-10T12:56:43;25.70;54.00
43884;DHT22;29544;52.018;5.810;2023-06-10T12:59:10;25.70;53.90
43884;DHT22;29544;52.018;5.810;2023-06-10T13:01:37;25.70;53.90
43884;DHT22;29544;52.018;5.810;2023-06-10T13:04:05;25.90;53.70
43884;DHT22;29544;52.018;5.810;2023-06-10T13:06:31;25.80;53.80
43884;DHT22;29544;52.018;5.810;2023-06-10T13:08:58;25.90;53.60
43884;DHT22;29544;52.018;5.810;2023-06-10T13:11:24;25.90;53.80
43884;DHT22;29544;52.018;5.810;2023-06-10T13:13:51;25.90;53.60
43884;DHT22;29544;52.018;5.810;2023-06-10T13:16:16;25.90;53.60
43884;DHT22;29544;52.018;5.810;2023-06-10T13:18:42;25.90;53.40
43884;DHT22;29544;52.018;5.810;2023-06-10T13:21:08;26.00;53.70
43884;DHT22;29544;52.018;5.810;2023-06-10T13:23:33;26.00;53.30
43884;DHT22;29544;52.018;5.810;2023-06-10T13:25:59;26.00;53.40
43884;DHT22;29544;52.018;5.810;2023-06-10T13:28:25;26.00;53.50
43884;DHT22;29544;52.018;5.810;2023-06-10T13:30:51;26.10;53.50
43884;DHT22;29544;52.018;5.810;2023-06-10T13:33:16;26.10;53.40
43884;DHT22;29544;52.018;5.810;2023-06-10T13:35:42;26.10;53.30
43884;DHT22;29544;52.018;5.810;2023-06-10T13:38:07;26.20;53.30
43884;DHT22;29544;52.018;5.810;2023-06-10T13:40:33;26.20;53.40
43884;DHT22;29544;52.018;5.810;2023-06-10T13:42:58;26.20;53.00
43884;DHT22;29544;52.018;5.810;2023-06-10T13:45:24;26.20;53.00
43884;DHT22;29544;52.018;5.810;2023-06-10T13:47:50;26.20;53.00
43884;DHT22;29544;52.018;5.810;2023-06-10T13:50:16;26.30;53.10
43884;DHT22;29544;52.018;5.810;2023-06-10T13:52:41;26.30;53.10
43884;DHT22;29544;52.018;5.810;2023-06-10T13:55:07;26.40;53.00
43884;DHT22;29544;52.018;5.810;2023-06-10T13:57:33;26.40;52.90
43884;DHT22;29544;52.018;5.810;2023-06-10T13:59:59;26.40;52.80
43884;DHT22;29544;52.018;5.810;2023-06-10T14:02:25;26.40;53.00
43884;DHT22;29544;52.018;5.810;2023-06-10T14:04:50;26.40;52.70
43884;DHT22;29544;52.018;5.810;2023-06-10T14:07:16;26.50;52.90
43884;DHT22;29544;52.018;5.810;2023-06-10T14:09:42;26.50;52.80
43884;DHT22;29544;52.018;5.810;2023-06-10T14:12:07;26.50;52.60
43884;DHT22;29544;52.018;5.810;2023-06-10T14:14:34;26.50;52.70
43884;DHT22;29544;52.018;5.810;2023-06-10T14:17:00;26.50;52.60
43884;DHT22;29544;52.018;5.810;2023-06-10T14:19:25;26.50;52.90
43884;DHT22;29544;52.018;5.810;2023-06-10T14:21:51;26.60;52.70
43884;DHT22;29544;52.018;5.810;2023-06-10T14:24:18;26.60;52.40
43884;DHT22;29544;52.018;5.810;2023-06-10T14:26:43;26.60;52.10
43884;DHT22;29544;52.018;5.810;2023-06-10T14:29:09;26.60;52.10
43884;DHT22;29544;52.018;5.810;2023-06-10T14:31:35;26.60;52.30
43884;DHT22;29544;52.018;5.810;2023-06-10T14:34:00;26.60;52.50
43884;DHT22;29544;52.018;5.810;2023-06-10T14:36:26;26.60;52.30
43884;DHT22;29544;52.018;5.810;2023-06-10T14:38:51;26.70;52.10
43884;DHT22;29544;52.018;5.810;2023-06-10T14:41:17;26.70;52.20
43884;DHT22;29544;52.018;5.810;2023-06-10T14:43:43;26.70;51.90
43884;DHT22;29544;52.018;5.810;2023-06-10T14:46:08;26.70;52.00
43884;DHT22;29544;52.018;5.810;2023-06-10T14:48:34;26.70;51.50
43884;DHT22;29544;52.018;5.810;2023-06-10T14:51:00;26.70;51.60
43884;DHT22;29544;52.018;5.810;2023-06-10T14:53:25;26.70;51.70
43884;DHT22;29544;52.018;5.810;2023-06-10T14:55:51;26.70;51.50
43884;DHT22;29544;52.018;5.810;2023-06-10T14:58:16;26.70;51.50
43884;DHT22;29544;52.018;5.810;2023-06-10T15:00:42;26.70;51.60
43884;DHT22;29544;52.018;5.810;2023-06-10T15:03:07;26.80;51.40
43884;DHT22;29544;52.018;5.810;2023-06-10T15:05:33;26.80;51.30
43884;DHT22;29544;52.018;5.810;2023-06-10T15:08:00;26.80;51.40
43884;DHT22;29544;52.018;5.810;2023-06-10T15:10:25;26.80;51.40
43884;DHT22;29544;52.018;5.810;2023-06-10T15:12:51;26.80;51.30
43884;DHT22;29544;52.018;5.810;2023-06-10T15:15:24;26.80;51.20
43884;DHT22;29544;52.018;5.810;2023-06-10T15:17:51;26.90;51.20
43884;DHT22;29544;52.018;5.810;2023-06-10T15:20:16;26.80;51.30
43884;DHT22;29544;52.018;5.810;2023-06-10T15:22:42;26.90;51.30
43884;DHT22;29544;52.018;5.810;2023-06-10T15:25:08;26.90;51.20
43884;DHT22;29544;52.018;5.810;2023-06-10T15:27:33;26.90;51.00
43884;DHT22;29544;52.018;5.810;2023-06-10T15:29:59;26.90;51.20
43884;DHT22;29544;52.018;5.810;2023-06-10T15:32:24;26.90;51.30
43884;DHT22;29544;52.018;5.810;2023-06-10T15:34:50;26.90;51.30
43884;DHT22;29544;52.018;5.810;2023-06-10T15:37:18;26.90;51.20
43884;DHT22;29544;52.018;5.810;2023-06-10T15:39:43;26.90;51.40